• Join FlightAware (Why Join?)
  • Login
  • US Flag 
10:30AM EDT


 

Airport Tracker/Info


-or-


 

Live Flight TrackerFlight Track Log ✈ ASQ5678 ✈ 20-Jun-2013 ✈ KEWR - KCVG

Flight Track Log - Related Links

Times and Time Zones

All times are in EDT time to prevent confusion due to time zone crossing. See the ASQ5678 flight status page for this flight to view local times or setup timezone preferences in your user account.

Time Position Orientation Groundspeed Altitude Reporting Facility
EDT Latitude Longitude Course Direction KTS MPH feet Rate Location/Type
06:09PM 40.6333 -74.1833 217° Southwest 181 208 2,200  Level New York TRACON
06:10PM 40.5833 -74.2333 217° Southwest 232 267 4,000 1,980 Climbing New York TRACON
06:11PM 40.5833 -74.3167 270° West 248 285 6,200 2,100 Climbing New York TRACON
06:12PM 40.5833 -74.4000 270° West 265 305 8,200 1,680 Climbing New York TRACON
06:14PM 40.6164 -74.5931 283° West 298 343 11,100 1,320 Climbing New York Center
06:15PM 40.6333 -74.7089 281° West 310 357 12,000 1,020 Climbing New York Center
06:16PM 40.6522 -74.8331 281° West 343 395 13,200 1,080 Climbing New York Center
06:17PM 40.6686 -74.9597 280° West 357 411 14,300 1,080 Climbing New York Center
06:18PM 40.6744 -75.0861 274° West 357 411 15,400 1,020 Climbing New York Center
06:19PM 40.6308 -75.1928 242° Southwest 345 397 16,400 1,080 Climbing New York Center
06:20PM 40.5767 -75.3067 238° Southwest 357 411 17,600 960 Climbing New York Center
06:21PM 40.5283 -75.4211 241° Southwest 362 417 18,400 720 Climbing New York Center
06:22PM 40.4739 -75.5347 238° Southwest 373 429 19,100 540 Climbing New York Center
06:23PM 40.4211 -75.6536 240° Southwest 378 435 19,600 540 Climbing New York Center
06:24PM 40.3636 -75.7775 239° Southwest 383 441 20,200 660 Climbing New York Center
06:25PM 40.3064 -75.8986 238° Southwest 391 450 20,900 780 Climbing New York Center
06:26PM 40.2400 -76.0353 238° Southwest 398 458 21,800 780 Climbing New York Center
06:27PM 40.1822 -76.1586 239° Southwest 398 458 22,500 600 Climbing New York Center
06:28PM 40.1292 -76.2683 238° Southwest 398 458 23,100 600 Climbing New York Center
06:29PM 40.0714 -76.3914 238° Southwest 398 458 23,800 720 Climbing New York Center
06:30PM 40.0175 -76.5119 240° Southwest 398 458 24,600 720 Climbing New York Center
06:31PM 39.9594 -76.6344 238° Southwest 398 458 25,300 660 Climbing New York Center
06:33PM 39.8378 -76.8939 239° Southwest 413 475 26,800 660 Climbing Washington Center
06:34PM 39.7803 -77.0144 238° Southwest 407 468 27,500 660 Climbing Washington Center
06:35PM 39.7247 -77.1347 239° Southwest 401 461 28,200 660 Climbing Washington Center
06:36PM 39.6689 -77.2522 238° Southwest 395 455 28,900 660 Climbing Washington Center
06:37PM 39.6108 -77.3747 238° Southwest 395 455 29,600 720 Climbing Washington Center
06:38PM 39.5528 -77.4944 238° Southwest 400 460 30,400 720 Climbing Washington Center
06:39PM 39.4967 -77.6167 239° Southwest 400 460 31,100 660 Climbing Washington Center
06:40PM 39.4361 -77.7386 237° Southwest 400 460 31,800 420 Climbing Washington Center
06:41PM 39.3775 -77.8683 240° Southwest 400 460 32,000 60 Climbing Washington Center
06:42PM 39.3250 -78.0008 243° Southwest 407 468 32,000  Level Washington Center
06:43PM 39.2722 -78.1386 244° Southwest 418 481 32,000  Level Washington Center
06:44PM 39.2214 -78.2628 242° Southwest 429 494 32,000  Level Washington Center
06:45PM 39.1572 -78.4236 243° Southwest 429 494 32,000  Level Washington Center
06:46PM 39.1019 -78.5606 243° Southwest 429 494 32,000  Level Washington Center
06:47PM 39.0464 -78.6972 242° Southwest 429 494 32,000  Level Washington Center
06:48PM 38.9969 -78.8342 245° Southwest 429 494 32,000  Level Washington Center
06:49PM 38.9761 -78.9853 260° West 429 494 32,000  Level Washington Center
06:50PM 38.9592 -79.1369 262° West 429 494 32,000  Level Washington Center
06:51PM 38.9419 -79.2908 262° West 434 499 32,000  Level Washington Center
06:52PM 38.9269 -79.4422 263° West 434 499 32,000  Level Washington Center
06:53PM 38.9069 -79.6011 261° West 441 507 32,000  Level Washington Center
06:54PM 38.8872 -79.7547 261° West 448 516 32,000  Level Washington Center
06:55PM 38.8700 -79.8897 261° West 442 509 32,000  Level Washington Center
06:56PM 38.8500 -80.0164 259° West 431 496 32,000  Level Indianapolis Center
06:57PM 38.8317 -80.1664 261° West 428 493 32,000  Level Indianapolis Center
06:58PM 38.8119 -80.3147 260° West 424 488 32,000  Level Indianapolis Center
06:59PM 38.7939 -80.4622 261° West 419 482 32,000  Level Indianapolis Center
07:00PM 38.7764 -80.6089 261° West 418 481 32,000  Level Indianapolis Center
07:01PM 38.7522 -80.7839 260° West 418 481 32,000  Level Indianapolis Center
07:02PM 38.7325 -80.9306 260° West 418 481 32,000  Level Indianapolis Center
07:03PM 38.7131 -81.0789 261° West 421 484 32,000  Level Indianapolis Center
07:04PM 38.6925 -81.2283 260° West 426 490 32,000  Level Indianapolis Center
07:05PM 38.6706 -81.3792 259° West 428 493 32,000  Level Indianapolis Center
07:06PM 38.6497 -81.5397 261° West 433 498 32,000  Level Indianapolis Center
07:07PM 38.6283 -81.6969 260° West 435 501 32,000 -600 Level Indianapolis Center
07:08PM 38.6067 -81.8483 260° West 432 497 30,800 -1,320 Descending Indianapolis Center
07:09PM 38.5858 -82.0011 260° West 434 499 29,300 -1,620 Descending Indianapolis Center
07:10PM 38.5589 -82.1831 259° West 434 499 27,500 -1,620 Descending Indianapolis Center
07:11PM 38.5372 -82.3356 260° West 436 502 26,000 -1,500 Descending Indianapolis Center
07:12PM 38.5136 -82.4908 259° West 442 509 24,400 -1,140 Descending Indianapolis Center
07:13PM 38.4881 -82.6636 259° West 451 519 23,700 -1,080 Descending Indianapolis Center
07:15PM 38.4656 -82.8142 259° West 439 505 22,200 -1,320 Descending Indianapolis Center
07:16PM 38.4414 -82.9669 259° West 438 504 21,000 -600 Descending Indianapolis Center
07:17PM 38.4194 -83.1142 259° West 426 490 21,000 -240 Level Indianapolis Center
07:18PM 38.3975 -83.2644 259° West 431 496 20,600 -1,500 Descending Indianapolis Center
07:19PM 38.4372 -83.4264 287° West 413 475 17,900 -2,400 Descending Indianapolis Center
07:20PM 38.4825 -83.5525 295° West 393 452 15,600 -2,220 Descending Indianapolis Center
07:21PM 38.5258 -83.6747 294° West 382 440 13,300 -2,100 Descending Indianapolis Center
07:22PM 38.5706 -83.8011 294° West 388 447 11,300 -1,620 Descending Indianapolis Center
07:23PM 38.6133 -83.9214 295° West 372 428 10,000 -720 Descending Indianapolis Center
07:24PM 38.6758 -84.0425 303° West 358 412 9,900 -60 Descending Indianapolis Center
07:25PM 38.7308 -84.1486 304° West 356 410 9,900  Level Indianapolis Center
07:26PM 38.7872 -84.2592 303° West 363 418 9,900 -240 Level Indianapolis Center
07:27PM 38.8375 -84.3550 304° West 326 375 9,500 -540 Descending Indianapolis Center
07:28PM 38.8811 -84.4422 303° West 290 334 8,900 -300 Descending Indianapolis Center
07:29PM 38.9294 -84.5247 307° West 286 329 8,900 -300 Level Indianapolis Center
07:30PM 39.0103 -84.5389 352° North 292 336 8,300 -960 Descending Indianapolis Center
07:31PM 39.0889 -84.5406 359° North 282 325 7,000 -1,560 Descending Indianapolis Center
07:32PM 39.1511 -84.5622 345° North 261 300 5,200 -1,800 Descending Indianapolis Center